Flight Track Log - Related Links

Times and Time Zones

All times are in EDT time to prevent confusion due to time zone crossing. See the UAL310 flight status page for this flight to view local times or setup timezone preferences in your user account.

Time Position Orientation Groundspeed Altitude Reporting Facility
EDT Latitude Longitude Course Direction KTS MPH feet Rate Location/Type
Fri 12:31:13 PM 39.9500 -104.6833 18° North 233 268 8,200  Level Denver TRACON
Fri 12:32:13 PM 40.0167 -104.6667 11° North 254 292 10,600 2,168 Climbing Denver TRACON
Fri 12:33:12 PM 40.0947 -104.6372 16° North 286 329 12,500 1,934 Climbing Denver Center
Fri 12:34:14 PM 40.1797 -104.6017 18° North 315 362 14,500 1,984 Climbing Denver Center
Fri 12:35:00 PM 40.5751 -104.4024 12° North  Level FlightAware Approximate
Fri 12:35:16 PM 40.2836 -104.5569 18° North 364 419 16,600  Level Denver Center
Fri 12:36:00 PM 40.6949 -104.3522 18° North  Level FlightAware Approximate
Fri 12:36:18 PM 40.3869 -104.5203 15° North 382 440 18,400  Level Denver Center
Fri 12:37:20 PM 40.4969 -104.4711 19° North 385 443 20,500 1,935 Climbing Denver Center
Fri 12:38:22 PM 40.6089 -104.4325 15° North 414 476 22,400 1,790 Climbing Denver Center
Fri 12:39:24 PM 40.7175 -104.3808 20° North 418 481 24,200 1,694 Climbing Denver Center
Fri 12:40:26 PM 40.8286 -104.3431 14° North 417 480 25,900 1,548 Climbing Denver Center
Fri 12:41:28 PM 40.9572 -104.2917 17° North 429 494 27,400 1,403 Climbing Denver Center
Fri 12:42:30 PM 41.0703 -104.2439 18° North 440 506 28,800 1,645 Climbing Denver Center
Fri 12:43:32 PM 41.1997 -104.1922 17° North 438 504 30,800 1,597 Climbing Denver Center
Fri 12:44:34 PM 41.3094 -104.1489 17° North 431 496 32,100 1,210 Climbing Denver Center
Fri 12:45:36 PM 41.4389 -104.0944 17° North 436 502 33,300 1,210 Climbing Denver Center
Fri 12:46:38 PM 41.5489 -104.0483 17° North 435 501 34,600 823 Climbing Denver Center
Fri 12:47:40 PM 41.6758 -103.9978 17° North 427 491 35,000 480 Climbing Denver Center
Fri 12:48:43 PM 41.7867 -103.9517 17° North 435 501 35,600 768 Climbing Denver Center
Fri 12:49:45 PM 41.9119 -103.9000 17° North 425 489 36,600 677 Climbing Denver Center
Fri 12:50:47 PM 42.0186 -103.8558 17° North 420 483 37,000 194 Climbing Denver Center
Fri 12:51:49 PM 42.1281 -103.8106 17° North 427 491 37,000  Level Denver Center
Fri 12:52:51 PM 42.2561 -103.7556 18° North 432 497 37,000  Level Denver Center
Fri 12:53:53 PM 42.3642 -103.7106 17° North 429 494 37,000  Level Denver Center
Fri 12:54:55 PM 42.4883 -103.6589 17° North 422 486 37,000  Level Denver Center
Fri 12:55:57 PM 42.5942 -103.6133 18° North 419 482 37,000  Level Denver Center
Fri 12:56:59 PM 42.7161 -103.5603 18° North 414 476 37,000  Level Denver Center
Fri 12:58:01 PM 42.8211 -103.5147 18° North 415 478 37,000  Level Denver Center
Fri 12:59:03 PM 42.9431 -103.4628 17° North 413 475 37,000  Level Denver Center
Fri 01:00:05 PM 43.0481 -103.4164 18° North 414 476 37,000  Level Denver Center
Fri 01:01:07 PM 43.1725 -103.3631 17° North 418 481 37,000  Level Denver Center
Fri 01:02:09 PM 43.2783 -103.3189 17° North 417 480 37,000  Level Denver Center
Fri 01:03:11 PM 43.4019 -103.2639 18° North 418 481 37,000  Level Denver Center
Fri 01:04:13 PM 43.5069 -103.2178 18° North 416 479 37,000  Level Denver Center
Fri 01:05:15 PM 43.6306 -103.1639 18° North 417 480 37,000  Level Denver Center
Fri 01:06:17 PM 43.7364 -103.1181 17° North 417 480 37,000  Level Denver Center
Fri 01:07:19 PM 43.8625 -103.0631 17° North 423 487 37,000  Level Denver Center
Fri 01:08:21 PM 43.9656 -103.0033 23° Northeast 425 489 37,000  Level Denver Center
Fri 01:09:23 PM 44.0097 -102.8286 71° East 430 495 37,000  Level Denver Center
Fri 01:10:25 PM 44.0242 -102.6592 83° East 446 513 37,000  Level Denver Center
Fri 01:11:27 PM 44.0469 -102.4897 79° East 448 516 37,000  Level Denver Center
Fri 01:12:29 PM 44.0717 -102.3214 78° East 446 513 37,000  Level Denver Center
Fri 01:13:31 PM 44.0967 -102.1539 78° East 444 511 37,000  Level Denver Center
Fri 01:14:33 PM 44.1244 -101.9494 79° East 447 514 37,000  Level Denver Center
Fri 01:15:35 PM 44.1458 -101.7803 80° East 445 512 37,000  Level Denver Center
Fri 01:16:37 PM 44.1683 -101.6106 79° East 447 514 37,000  Level Denver Center
Fri 01:17:40 PM 44.1903 -101.4403 80° East 448 516 37,000  Level Denver Center
Fri 01:18:38 PM 44.2156 -101.2758 78° East 445 512 37,000  Level Minneapolis Center
Fri 01:19:44 PM 44.2344 -101.1008 81° East 447 514 37,000  Level Denver Center
Fri 01:20:42 PM 44.2589 -100.9339 78° East 447 514 37,000  Level Minneapolis Center
Fri 01:21:44 PM 44.2811 -100.7636 80° East 448 516 37,000  Level Minneapolis Center
Fri 01:22:58 PM 44.3061 -100.5586 80° East 449 517 37,000  Level Minneapolis Center
Fri 01:24:01 PM 44.3319 -100.3531 80° East 450 518 37,000  Level Minneapolis Center
Fri 01:25:15 PM 44.3528 -100.1808 80° East 451 519 37,000  Level Minneapolis Center
Fri 01:26:17 PM 44.3772 -99.9731 81° East 454 522 37,000  Level Minneapolis Center
Fri 01:27:19 PM 44.3969 -99.8000 81° East 454 522 37,000  Level Minneapolis Center
Fri 01:28:21 PM 44.4222 -99.5919 80° East 456 525 37,000  Level Minneapolis Center
Fri 01:29:23 PM 44.4419 -99.4178 81° East 456 525 37,000  Level Minneapolis Center
Fri 01:30:25 PM 44.4625 -99.2436 81° East 457 526 37,000  Level Minneapolis Center
Fri 01:31:27 PM 44.4808 -99.0678 82° East 458 527 37,000  Level Minneapolis Center
Fri 01:32:29 PM 44.5003 -98.8933 81° East 457 526 37,000  Level Minneapolis Center
Fri 01:34:34 PM 44.5417 -98.5061 81° East 458 527 37,000  Level Minneapolis Center
Fri 01:35:36 PM 44.5581 -98.3406 82° East 459 528 37,000  Level Minneapolis Center
Fri 01:36:38 PM 44.5769 -98.1636 81° East 460 529 37,000  Level Minneapolis Center
Fri 01:37:40 PM 44.5975 -97.9489 82° East 462 532 37,000  Level Minneapolis Center
Fri 01:38:42 PM 44.6092 -97.7683 85° East 465 535 37,000  Level Minneapolis Center
Fri 01:39:44 PM 44.6169 -97.5872 86° East 467 537 37,000  Level Minneapolis Center
Fri 01:40:46 PM 44.6247 -97.4064 86° East 465 535 37,000  Level Minneapolis Center
Fri 01:42:00 PM 44.6350 -97.2239 85° East 467 537 37,000  Level Minneapolis Center
Fri 01:43:03 PM 44.6447 -97.0061 86° East 467 537 37,000  Level Minneapolis Center
Fri 01:44:05 PM 44.6536 -96.7872 87° East 467 537 37,000  Level Minneapolis Center
Fri 01:45:07 PM 44.6628 -96.6042 86° East 467 537 37,000  Level Minneapolis Center
Fri 01:46:09 PM 44.6703 -96.4206 87° East 468 539 37,000  Level Minneapolis Center
Fri 01:48:13 PM 44.6853 -96.0544 87° East 467 537 37,000  Level Minneapolis Center
Fri 01:49:15 PM 44.6914 -95.8719 87° East 466 536 37,000  Level Minneapolis Center
Fri 01:50:17 PM 44.6986 -95.6886 87° East 467 537 37,000  Level Minneapolis Center
Fri 01:51:19 PM 44.7064 -95.4700 87° East 467 537 37,000  Level Minneapolis Center
Fri 01:52:21 PM 44.7125 -95.2861 87° East 469 540 37,000  Level Minneapolis Center
Fri 01:53:23 PM 44.7183 -95.1044 87° East 467 537 37,000  Level Minneapolis Center
Fri 01:54:25 PM 44.7242 -94.9206 87° East 469 540 37,000  Level Minneapolis Center
Fri 01:55:27 PM 44.7281 -94.7369 88° East 470 541 37,000  Level Minneapolis Center
Fri 01:56:29 PM 44.7314 -94.5333 89° East 473 544 37,000  Level Minneapolis Center
Fri 01:57:32 PM 44.7367 -94.3508 88° East 472 543 37,000  Level Minneapolis Center
Fri 01:58:34 PM 44.7397 -94.1664 89° East 472 543 37,000  Level Minneapolis Center
Fri 01:59:36 PM 44.7450 -93.9817 88° East 476 548 37,000 -422 Level Minneapolis Center
Fri 02:00:42 PM 44.7489 -93.7586 89° East 477 549 36,100 -938 Descending Minneapolis Center
Fri 02:01:44 PM 44.7525 -93.5736 88° East 476 548 35,000 -532 Descending Minneapolis Center
Fri 02:02:46 PM 44.7556 -93.3822 89° East 488 562 35,000  Level Minneapolis Center
Fri 02:03:48 PM 44.7547 -93.1622 90° East 493 567 35,000  Level Minneapolis Center
Fri 02:04:50 PM 44.7511 -92.9797 92° East 493 567 35,000  Level Minneapolis Center
Fri 02:05:52 PM 44.7450 -92.7897 93° East 489 563 35,000  Level Minneapolis Center
Fri 02:06:54 PM 44.7378 -92.6011 93° East 486 559 35,000  Level Minneapolis Center
Fri 02:07:56 PM 44.7297 -92.3753 93° East 483 556 35,000  Level Minneapolis Center
Fri 02:08:58 PM 44.7236 -92.1883 93° East 483 556 35,000  Level Minneapolis Center
Fri 02:10:00 PM 44.7172 -92.0011 93° East 482 555 35,000  Level Minneapolis Center
Fri 02:11:02 PM 44.7114 -91.8133 92° East 482 555 35,000  Level Minneapolis Center
Fri 02:12:04 PM 44.7031 -91.6267 94° East 481 554 35,000  Level Minneapolis Center
Fri 02:13:06 PM 44.6961 -91.4394 93° East 481 554 35,000  Level Minneapolis Center
Fri 02:14:08 PM 44.6853 -91.2125 94° East 486 559 35,000  Level Minneapolis Center
Fri 02:15:09 PM 44.6786 -91.0628 94° East 484 557 35,000  Level Minneapolis Center
Fri 02:16:12 PM 44.6675 -90.8353 94° East 488 562 35,000  Level Minneapolis Center
Fri 02:17:14 PM 44.6572 -90.6444 94° East 491 565 35,000  Level Minneapolis Center
Fri 02:18:16 PM 44.6472 -90.4361 94° East 490 564 35,000  Level Minneapolis Center
Fri 02:19:18 PM 44.6372 -90.2442 94° East 492 566 35,000  Level Minneapolis Center
Fri 02:20:20 PM 44.6269 -90.0519 94° East 493 567 35,000  Level Minneapolis Center
Fri 02:21:22 PM 44.6161 -89.8611 94° East 491 565 35,000  Level Minneapolis Center
Fri 02:22:24 PM 44.6028 -89.6375 95° East 491 565 35,000  Level Minneapolis Center
Fri 02:23:26 PM 44.5914 -89.4467 95° East 491 565 35,000  Level Minneapolis Center
Fri 02:24:28 PM 44.5794 -89.2531 95° East 495 570 35,000  Level Minneapolis Center
Fri 02:25:30 PM 44.5675 -89.0603 95° East 495 570 35,000  Level Minneapolis Center
Fri 02:26:32 PM 44.5556 -88.8667 95° East 496 571 35,000  Level Minneapolis Center
Fri 02:27:34 PM 44.5428 -88.6742 95° East 496 571 35,000  Level Minneapolis Center
Fri 02:28:37 PM 44.5278 -88.4503 95° East 494 568 35,000  Level Minneapolis Center
Fri 02:29:39 PM 44.5136 -88.2575 96° East 494 568 35,000  Level Minneapolis Center
Fri 02:30:41 PM 44.5000 -88.0650 96° East 494 568 35,000  Level Minneapolis Center
Fri 02:31:43 PM 44.4867 -87.8900 96° East 496 571 35,000  Level Minneapolis Center
Fri 02:32:45 PM 44.4683 -87.6586 96° East 499 574 35,000  Level Minneapolis Center
Fri 02:33:47 PM 44.4536 -87.4678 96° East 497 572 35,000  Level Minneapolis Center
Fri 02:34:49 PM 44.4369 -87.2586 96° East 501 577 35,000  Level Minneapolis Center
Fri 02:35:51 PM 44.4225 -87.0836 97° East 499 574 35,000  Level Minneapolis Center
Fri 02:36:53 PM 44.4072 -86.8925 96° East 497 572 35,000  Level Minneapolis Center
Fri 02:37:55 PM 44.3878 -86.6631 97° East 499 574 35,000  Level Minneapolis Center
Fri 02:38:57 PM 44.3717 -86.4742 97° East 496 571 35,000  Level Minneapolis Center
Fri 02:39:59 PM 44.3553 -86.2850 97° East 496 571 35,000  Level Minneapolis Center
Fri 02:41:01 PM 44.3378 -86.0972 97° East 495 570 35,000  Level Minneapolis Center
Fri 02:42:03 PM 44.3214 -85.9100 97° East 492 566 35,000  Level Minneapolis Center
Fri 02:43:05 PM 44.3008 -85.6867 97° East 490 564 35,000  Level Minneapolis Center
Fri 02:44:08 PM 44.2831 -85.4997 98° East 490 564 35,000  Level Minneapolis Center
Fri 02:45:09 PM 44.2683 -85.3494 98° East 490 564 35,000  Level Minneapolis Center
Fri 02:46:12 PM 44.2469 -85.1242 97° East 491 565 35,000  Level Minneapolis Center
Fri 02:47:14 PM 44.2286 -84.9369 98° East 491 565 35,000  Level Minneapolis Center
Fri 02:48:16 PM 44.2064 -84.7117 98° East 491 565 35,000  Level Minneapolis Center
Fri 02:49:18 PM 44.1867 -84.5247 98° East 490 564 35,000  Level Minneapolis Center
Fri 02:50:20 PM 44.1703 -84.3350 97° East 495 570 35,000  Level Minneapolis Center
Fri 02:51:22 PM 44.1797 -84.1414 86° East 499 574 35,000  Level Minneapolis Center
Fri 02:52:24 PM 44.1900 -83.9478 86° East 503 579 35,000  Level Minneapolis Center
Fri 02:53:26 PM 44.2006 -83.7150 86° East 504 580 35,000  Level Minneapolis Center
Fri 02:54:28 PM 44.2083 -83.5217 87° East 504 580 35,000  Level Minneapolis Center
Fri 02:55:30 PM 44.2172 -83.3264 86° East 504 580 35,000  Level Minneapolis Center
Fri 02:56:45 PM 44.2250 -83.0925 87° East 505 581 35,000  Level Minneapolis Center
Fri 02:57:21 PM 44.2167 -82.9333 94° East 510 587 35,000 63 Level Toronto Center
Fri 02:58:21 PM 44.2167 -82.7500 90° East 510 587 35,100 600 Climbing Toronto Center
Fri 02:59:21 PM 44.2333 -82.5667 83° East 510 587 36,200 941 Climbing Toronto Center
Fri 03:00:03 PM 44.2475 -82.4228 82° East 512 589 36,700 700 Climbing Minneapolis Center
Fri 03:00:21 PM 44.2333 -82.3500 105° East 520 598 36,900 231 Climbing Toronto Center
Fri 03:01:21 PM 44.2333 -82.1500 90° East 520 598 37,000 50 Climbing Toronto Center
Fri 03:02:21 PM 44.2333 -81.9333 90° East 530 610 37,000  Level Toronto Center
Fri 03:03:22 PM 44.2500 -81.7333 83° East 530 610 37,000  Level Toronto Center
Fri 03:04:21 PM 44.2667 -81.5500 83° East 540 621 37,000  Level Toronto Center
Fri 03:05:21 PM 44.2667 -81.3167 90° East 540 621 37,000  Level Toronto Center
Fri 03:06:21 PM 44.2667 -81.1000 90° East 550 633 37,000  Level Toronto Center
Fri 03:07:21 PM 44.2667 -80.8833 90° East 540 621 37,000  Level Toronto Center
Fri 03:08:22 PM 44.2833 -80.6833 83° East 540 621 37,000  Level Toronto Center
Fri 03:09:21 PM 44.3000 -80.5000 83° East 530 610 37,000  Level Toronto Center
Fri 03:10:21 PM 44.3000 -80.2667 90° East 530 610 37,000  Level Toronto Center
Fri 03:11:21 PM 44.3000 -80.0833 90° East 530 610 37,000  Level Toronto Center
Fri 03:12:21 PM 44.3000 -79.8667 90° East 520 598 37,000  Level Toronto Center
Fri 03:13:21 PM 44.3000 -79.6500 90° East 520 598 37,000  Level Toronto Center
Fri 03:15:00 PM 44.3077 -79.3632 85° East  Level FlightAware Approximate
Fri 03:15:21 PM 44.3167 -79.2667 85° East 520 598 37,000  Level Toronto Center
Fri 03:16:21 PM 44.2833 -79.0667 103° East 520 598 37,000  Level Toronto Center
Fri 03:17:21 PM 44.2333 -78.8667 109° East 510 587 37,000  Level Toronto Center
Fri 03:18:21 PM 44.2000 -78.6833 104° East 510 587 37,000  Level Toronto Center
Fri 03:19:22 PM 44.1667 -78.5000 104° East 510 587 37,000  Level Toronto Center
Fri 03:20:21 PM 44.1000 -78.3167 117° Southeast 510 587 37,000  Level Toronto Center
Fri 03:21:21 PM 44.0667 -78.1167 103° East 510 587 37,000  Level Toronto Center
Fri 03:22:21 PM 44.0167 -77.9167 109° East 510 587 37,000  Level Toronto Center
Fri 03:23:22 PM 43.9833 -77.7333 104° East 510 587 37,000  Level Toronto Center
Fri 03:24:21 PM 43.9333 -77.5500 111° Southeast 510 587 37,000 -101 Level Toronto Center
Fri 03:25:21 PM 43.8833 -77.3667 111° Southeast 510 587 36,800 -600 Descending Toronto Center
Fri 03:26:21 PM 43.8333 -77.1833 111° Southeast 510 587 35,800 -1,050 Descending Toronto Center
Fri 03:27:21 PM 43.8000 -77.0000 104° East 500 575 34,700 -966 Descending Toronto Center
Fri 03:29:15 PM 43.7131 -76.7092 112° Southeast 480 552 33,000 -586 Descending Boston Center
Fri 03:30:15 PM 43.6178 -76.5792 135° Southeast 490 564 33,000  Level Boston Center
Fri 03:31:16 PM 43.5156 -76.4603 140° Southeast 477 549 33,000  Level Boston Center
Fri 03:32:15 PM 43.4153 -76.3422 139° Southeast 477 549 33,000  Level Boston Center
Fri 03:33:15 PM 43.3131 -76.2242 140° Southeast 482 555 33,000  Level Boston Center
Fri 03:34:15 PM 43.2108 -76.1011 139° Southeast 487 560 33,000  Level Boston Center
Fri 03:35:15 PM 43.0942 -75.9661 140° Southeast 492 566 33,000 -50 Level Boston Center
Fri 03:36:15 PM 42.9914 -75.8494 140° Southeast 492 566 32,900 -150 Descending Boston Center
Fri 03:37:15 PM 42.8867 -75.7247 139° Southeast 492 566 32,700 -450 Descending Boston Center
Fri 03:38:15 PM 42.7836 -75.6058 140° Southeast 492 566 32,000 -750 Descending Boston Center
Fri 03:39:15 PM 42.6806 -75.4875 140° Southeast 487 560 31,200 -800 Descending Boston Center
Fri 03:40:15 PM 42.5753 -75.3669 140° Southeast 487 560 30,400 -727 Descending Boston Center
Fri 03:41:27 PM 42.4761 -75.2467 138° Southeast 487 560 29,600 -1,500 Descending Boston Center
Fri 03:42:27 PM 42.3972 -75.0575 119° Southeast 472 543 27,100 -2,350 Descending Boston Center
Fri 03:43:27 PM 42.3383 -74.8950 116° Southeast 472 543 24,900 -1,773 Descending Boston Center
Fri 03:44:39 PM 42.2833 -74.7442 116° Southeast 472 543 23,200 -1,773 Descending Boston Center
Fri 03:45:39 PM 42.2158 -74.5594 116° Southeast 455 524 21,000 -1,900 Descending Boston Center
Fri 03:46:39 PM 42.1600 -74.4203 118° Southeast 443 510 19,400 -1,000 Descending Boston Center
Fri 03:47:39 PM 42.1144 -74.2900 115° Southeast 436 502 19,000 -200 Descending Boston Center
Fri 03:48:39 PM 42.0417 -74.1425 124° Southeast 436 502 19,000  Level Boston Center
Fri 03:49:39 PM 41.9767 -74.0150 124° Southeast 423 487 19,000 -450 Level Boston Center
Fri 03:50:39 PM 41.9181 -73.8936 123° Southeast 423 487 18,100 -1,450 Descending Boston Center
Fri 03:51:39 PM 41.8189 -73.8078 147° Southeast 395 455 16,100 -1,850 Descending Boston Center
Fri 03:52:39 PM 41.7169 -73.8000 177° South 360 414 14,400 -2,100 Descending Boston Center
Fri 03:53:39 PM 41.6169 -73.8036 182° South 360 414 11,900 -2,000 Descending Boston Center
Fri 03:54:45 PM 41.5000 -73.8000 179° South 345 397 10,200 -1,095 Descending New York TRACON
Fri 03:55:45 PM 41.4167 -73.8000 180° South 295 339 9,600 -952 Descending New York TRACON
Fri 03:56:51 PM 41.3333 -73.7833 171° South 290 334 8,200 -762 Descending New York TRACON
Fri 03:57:51 PM 41.2667 -73.7333 151° Southeast 290 334 8,000 -150 Descending New York TRACON
Fri 03:58:51 PM 41.2000 -73.6667 143° Southeast 293 337 7,900 -750 Descending New York TRACON
Fri 03:59:51 PM 41.1333 -73.6167 151° Southeast 289 333 6,500 -1,500 Descending New York TRACON
Fri 04:00:51 PM 41.0667 -73.6333 191° South 273 314 4,900 -1,250 Descending New York TRACON
Fri 04:01:51 PM 41.0000 -73.6833 210° Southwest 255 293 4,000 -800 Descending New York TRACON
Fri 04:02:51 PM 40.9500 -73.7333 217° Southwest 239 275 3,300 -632 Descending New York TRACON
Fri 04:03:45 PM 40.9000 -73.7667 207° Southwest 201 231 2,800 -789 Descending New York TRACON
Fri 04:04:45 PM 40.8667 -73.8000 217° Southwest 169 194 1,800 -1,000 Descending New York TRACON

Login

Don't have an account? Register now (free) for customized features, flight alerts, and more!